Chemical Pioneer — KAFO — position and weather

sailwx.info

Track history (hours):
 
Tides and Currents Weather Stations Pressure Air Temp Water Temp Dewpoint Dewpoint Depression Visibility Wind Speed Wind Dir Waves Ship Positions

Chemical Pioneer

Owner: US Shipping Corp, Edison, NJ. More information available from US FCC via Universal Licensing System and Coast Guard Vessel Documentation Center.

Last reported at 2015-May-27 23:33 UTC. Time now 2015-May-28 12:09 UTC.
Position N 38°15' W 074°41'.

Type: Tanker. MMSI: 366032000.

Date/timePositionNaut miles runAvg speedWind from/ knotsBaromVisibWave heightAir tempDewpointWater temp
2015-May-27 23:33N 38°15' W 074°41'1414.5
2015-May-27 22:33N 38°29' W 074°46'1514.9
2015-May-27 21:34N 38°41' W 074°57'1413.9
2015-May-27 20:33N 38°53' W 075°06'1211.7
2015-May-27 19:33N 39°04' W 075°11'1413.8
2015-May-27 18:34N 39°16' W 075°20'1515.0
2015-May-27 17:33N 39°27' W 075°33'1514.6
2015-May-27 16:33N 39°42' W 075°31'1313.0
2015-May-27 15:33N 39°51' W 075°19'9 9.2
2015-May-27 14:33N 39°54' W 075°08'5 4.8
2015-May-27 13:31N 39°59' W 075°06'0 0.0
2015-May-27 12:31N 39°59' W 075°06'0 0.0
2015-May-27 11:31N 39°59' W 075°06'0 0.0
2015-May-27 10:31N 39°59' W 075°06'0 0.0
2015-May-27 09:31N 39°59' W 075°06'0 0.0
2015-May-27 08:31N 39°59' W 075°06'0 0.0
2015-May-27 07:31N 39°59' W 075°06'0 0.0
2015-May-27 06:31N 39°59' W 075°06'0 0.0
2015-May-27 05:31N 39°59' W 075°06'0 0.0
2015-May-27 04:31N 39°59' W 075°06'0 0.0
2015-May-27 03:31N 39°59' W 075°06'0 0.0
2015-May-27 02:31N 39°59' W 075°06'0 0.0
2015-May-27 01:31N 39°59' W 075°06'0 0.0
2015-May-27 00:31N 39°59' W 075°06'0 0.0
2015-May-26 23:28N 39°59' W 075°06'0 0.0
2015-May-26 22:31N 39°59' W 075°06'0 0.0
2015-May-26 21:31N 39°59' W 075°06'0 0.0
2015-May-26 20:31N 39°59' W 075°06'0 0.0
2015-May-26 19:31N 39°59' W 075°06'0 0.0
2015-May-26 18:31N 39°59' W 075°06'0 0.0
2015-May-26 17:31N 39°59' W 075°06'0 0.0
2015-May-26 16:31N 39°59' W 075°06'0 0.0
2015-May-26 15:28N 39°59' W 075°06'0 0.0
2015-May-26 14:31N 39°59' W 075°06'0 0.0
2015-May-26 13:31N 39°59' W 075°06'0 0.0
2015-May-26 12:31N 39°59' W 075°06'0 0.0
2015-May-26 11:31N 39°59' W 075°06'0 0.0
2015-May-26 10:31N 39°59' W 075°06'0 0.0
2015-May-26 09:31N 39°59' W 075°06'0 0.0
2015-May-26 08:31N 39°59' W 075°06'0 0.0
2015-May-26 07:31N 39°59' W 075°06'0 0.0
2015-May-26 06:31N 39°59' W 075°06'0 0.0
2015-May-26 05:31N 39°59' W 075°06'0 0.0
2015-May-26 04:31N 39°59' W 075°06'0 0.0
2015-May-26 03:31N 39°59' W 075°06'0 0.0
2015-May-26 02:31N 39°59' W 075°06'0 0.0
2015-May-26 01:31N 39°59' W 075°06'0 0.0
2015-May-26 00:31N 39°59' W 075°06'0 0.0
2015-May-25 23:31N 39°59' W 075°06'0 0.0
2015-May-25 22:31N 39°59' W 075°06'0 0.0
2015-May-25 21:31N 39°59' W 075°06'0 0.0
2015-May-25 20:31N 39°59' W 075°06'0 0.0
2015-May-25 19:31N 39°59' W 075°06'0 0.0
2015-May-25 18:31N 39°59' W 075°06'0 0.0
2015-May-25 17:31N 39°59' W 075°06'0 0.0
2015-May-25 16:33N 39°59' W 075°06'0 0.0
2015-May-25 15:33N 39°59' W 075°06'0 0.0
2015-May-25 14:33N 39°59' W 075°06'0 0.0
2015-May-25 13:33N 39°59' W 075°06'0 0.0
2015-May-25 12:33N 39°59' W 075°06'0 0.0
2015-May-25 11:33N 39°59' W 075°06'0 0.0
2015-May-25 10:33N 39°59' W 075°06'0 0.0
2015-May-25 09:33N 39°59' W 075°06'0 0.0
2015-May-25 08:33N 39°59' W 075°06'0 0.0
2015-May-25 07:33N 39°59' W 075°06'0 0.0
2015-May-25 06:33N 39°59' W 075°06'0 0.0
2015-May-25 05:33N 39°59' W 075°06'0 0.0
2015-May-25 04:30N 39°59' W 075°06'0 0.0
2015-May-25 03:33N 39°59' W 075°06'0 0.0
2015-May-25 02:33N 39°59' W 075°06'0 0.0
2015-May-25 01:33N 39°59' W 075°06'0 0.0
2015-May-25 00:33N 39°59' W 075°06'2 1.6
2015-May-24 23:33N 39°58' W 075°07'5 5.5
2015-May-24 22:34N 39°53' W 075°10'6 5.6
2015-May-24 21:33N 39°51' W 075°17'1010.2
2015-May-24 20:33N 39°46' W 075°29'1211.0
2015-May-24 19:30N 39°35' W 075°33'3114.7
2015-May-24 17:24N 39°08' W 075°14'1316.0
2015-May-24 16:34N 38°56' W 075°06'1111.3
2015-May-24 15:33N 38°48' W 074°56'9 9.0
2015-May-24 14:33N 38°48' W 074°44'6 6.3
2015-May-24 13:33N 38°48' W 074°36'6 6.1
2015-May-24 12:33N 38°48' W 074°29'4 6.3
2015-May-24 12:00N 38°48' W 074°24'3 7.1 210 / 121030.610.8 0.518.110.114.1
2015-May-24 11:33N 38°48' W 074°20'8 7.9
2015-May-24 10:33N 38°48' W 074°10'8 8.3
2015-May-24 09:33N 38°48' W 073°59'6 6.5
2015-May-24 08:34N 38°48' W 073°51'6 5.8
2015-May-24 07:33N 38°48' W 073°43'7 7.0
2015-May-24 06:33N 38°48' W 073°34'7 7.1
2015-May-24 05:33N 38°49' W 073°25'7 6.6
2015-May-24 04:33N 38°49' W 073°17'7 6.7
2015-May-24 03:33N 38°53' W 073°10'7 6.7
2015-May-24 02:33N 38°56' W 073°03'7 6.8
2015-May-24 01:33N 39°00' W 072°56'7 7.0
2015-May-24 00:33N 39°05' W 072°48'8 6.9
2015-May-23 23:28N 39°08' W 072°40'6 7.0
2015-May-23 22:33N 39°11' W 072°33'7 7.1
2015-May-23 21:33N 39°15' W 072°25'18 7.5
2015-May-23 19:07N 39°33' W 072°23'7 7.6
2015-May-23 18:11N 39°40' W 072°26'3 4.8
2015-May-23 17:32N 39°41' W 072°30'8 7.6
2015-May-23 16:28N 39°34' W 072°26'14 7.3
2015-May-23 14:32N 39°22' W 072°16'20 3.4
2015-May-23 08:28N 39°24' W 072°42'77 6.5
2015-May-22 20:33N 40°23' W 073°48'1413.4
2015-May-22 19:32N 40°29' W 074°04'9 9.0
2015-May-22 18:32N 40°32' W 074°15'0 0.0
2015-May-20 22:33N 40°33' W 074°15'3 3.2
2015-May-20 21:32N 40°29' W 074°15'9 8.8
2015-May-20 20:33N 40°29' W 074°03'7 6.8
2015-May-20 19:29N 40°25' W 073°55'0 0.0
2015-May-20 18:11N 40°25' W 073°55'0 0.0
2015-May-20 16:23N 40°25' W 073°55'0 0.0
2015-May-20 15:14N 40°25' W 073°55'0 0.0
2015-May-20 14:23N 40°25' W 073°56'0 0.0
2015-May-20 13:32N 40°25' W 073°56'0 0.0
2015-May-20 11:32N 40°25' W 073°56'0 0.0
2015-May-20 10:26N 40°25' W 073°56'0 0.1
2015-May-20 09:32N 40°25' W 073°56'0 0.0
2015-May-20 08:32N 40°25' W 073°56'0 0.0
2015-May-20 07:32N 40°25' W 073°55'0 0.0
2015-May-20 06:32N 40°25' W 073°56'0 0.0
2015-May-20 05:29N 40°25' W 073°55'0 0.0
2015-May-20 04:32N 40°25' W 073°56'0 0.2
2015-May-20 03:32N 40°25' W 073°55'0 0.1
2015-May-20 02:32N 40°25' W 073°55'0 0.1
2015-May-20 01:08N 40°25' W 073°56'0 0.0
2015-May-20 00:32N 40°25' W 073°56'0 0.0
2015-May-19 23:30N 40°25' W 073°56'3 3.1
2015-May-19 22:34N 40°23' W 073°53'1515.0
2015-May-19 21:33N 40°09' W 073°45'1717.3
2015-May-19 20:33N 39°52' W 073°42'1716.6
2015-May-19 19:33N 39°37' W 073°33'1615.9
2015-May-19 18:32N 39°28' W 073°16'1413.9
2015-May-19 17:33N 39°18' W 073°04'42 9.6
2015-May-19 13:10N 38°42' W 073°33'16 9.4
2015-May-19 11:29N 38°47' W 073°52'1110.3
2015-May-19 10:28N 38°47' W 074°05'1010.6
2015-May-19 09:30N 38°46' W 074°18'9 9.1
2015-May-19 08:28N 38°46' W 074°30'9 9.9
2015-May-19 07:33N 38°46' W 074°42'1312.5
2015-May-19 06:34N 38°47' W 074°58'1413.8
2015-May-19 05:34N 38°58' W 075°07'1716.5
2015-May-19 04:33N 39°13' W 075°18'1414.2
2015-May-19 03:34N 39°24' W 075°29'1212.1
2015-May-19 02:33N 39°35' W 075°34'1010.0
2015-May-19 01:33N 39°45' W 075°30'1212.5
2015-May-19 00:34N 39°51' W 075°16'9 8.6
2015-May-18 23:33N 39°57' W 075°08'3 2.5
2015-May-18 22:31N 39°59' W 075°05'0 0.0
2015-May-18 21:31N 39°59' W 075°05'0 0.0
2015-May-18 20:31N 39°59' W 075°05'0 0.0
2015-May-18 19:31N 39°59' W 075°05'0 0.0
2015-May-18 18:31N 39°59' W 075°05'0 0.0
2015-May-18 17:31N 39°59' W 075°05'0 0.0
2015-May-18 16:31N 39°59' W 075°05'0 0.0
2015-May-18 15:31N 39°59' W 075°05'0 0.0
2015-May-18 14:31N 39°59' W 075°05'0 0.0
2015-May-18 13:31N 39°59' W 075°05'0 0.0
2015-May-18 12:31N 39°59' W 075°05'0 0.0
2015-May-18 11:31N 39°59' W 075°05'0 0.0
2015-May-18 10:31N 39°59' W 075°05'0 0.0
2015-May-18 09:31N 39°59' W 075°05'0 0.0
2015-May-18 08:31N 39°59' W 075°05'0 0.0
2015-May-18 07:33N 39°59' W 075°05'1 0.5
2015-May-18 06:33N 39°59' W 075°06'0 0.0
2015-May-18 05:33N 39°59' W 075°06'0 0.0
2015-May-18 04:33N 39°59' W 075°06'0 0.0
2015-May-18 03:33N 39°59' W 075°06'0 0.0
2015-May-18 02:33N 39°59' W 075°06'0 0.0
2015-May-18 01:33N 39°59' W 075°06'0 0.0
2015-May-18 00:33N 39°59' W 075°06'  
Track history (hours):
 
Tides and Currents Weather Stations Pressure Air Temp Water Temp Dewpoint Dewpoint Depression Visibility Wind Speed Wind Dir Waves Ship Positions

Chemical Pioneer

Owner: US Shipping Corp, Edison, NJ. More information available from US FCC via Universal Licensing System and Coast Guard Vessel Documentation Center.

Last reported at 2015-May-27 23:33 UTC. Time now 2015-May-28 12:09 UTC.
Position N 38°15' W 074°41'.

Type: Tanker. MMSI: 366032000.

Date/timePositionNaut miles runAvg speedWind from/ knotsBaromVisibWave heightAir tempDewpointWater temp
2015-May-27 23:33N 38°15' W 074°41'1414.5
2015-May-27 22:33N 38°29' W 074°46'1514.9
2015-May-27 21:34N 38°41' W 074°57'1413.9
2015-May-27 20:33N 38°53' W 075°06'1211.7
2015-May-27 19:33N 39°04' W 075°11'1413.8
2015-May-27 18:34N 39°16' W 075°20'1515.0
2015-May-27 17:33N 39°27' W 075°33'1514.6
2015-May-27 16:33N 39°42' W 075°31'1313.0
2015-May-27 15:33N 39°51' W 075°19'9 9.2
2015-May-27 14:33N 39°54' W 075°08'5 4.8
2015-May-27 13:31N 39°59' W 075°06'0 0.0
2015-May-27 12:31N 39°59' W 075°06'0 0.0
2015-May-27 11:31N 39°59' W 075°06'0 0.0
2015-May-27 10:31N 39°59' W 075°06'0 0.0
2015-May-27 09:31N 39°59' W 075°06'0 0.0
2015-May-27 08:31N 39°59' W 075°06'0 0.0
2015-May-27 07:31N 39°59' W 075°06'0 0.0
2015-May-27 06:31N 39°59' W 075°06'0 0.0
2015-May-27 05:31N 39°59' W 075°06'0 0.0
2015-May-27 04:31N 39°59' W 075°06'0 0.0
2015-May-27 03:31N 39°59' W 075°06'0 0.0
2015-May-27 02:31N 39°59' W 075°06'0 0.0
2015-May-27 01:31N 39°59' W 075°06'0 0.0
2015-May-27 00:31N 39°59' W 075°06'0 0.0
2015-May-26 23:28N 39°59' W 075°06'0 0.0
2015-May-26 22:31N 39°59' W 075°06'0 0.0
2015-May-26 21:31N 39°59' W 075°06'0 0.0
2015-May-26 20:31N 39°59' W 075°06'0 0.0
2015-May-26 19:31N 39°59' W 075°06'0 0.0
2015-May-26 18:31N 39°59' W 075°06'0 0.0
2015-May-26 17:31N 39°59' W 075°06'0 0.0
2015-May-26 16:31N 39°59' W 075°06'0 0.0
2015-May-26 15:28N 39°59' W 075°06'0 0.0
2015-May-26 14:31N 39°59' W 075°06'0 0.0
2015-May-26 13:31N 39°59' W 075°06'0 0.0
2015-May-26 12:31N 39°59' W 075°06'0 0.0
2015-May-26 11:31N 39°59' W 075°06'0 0.0
2015-May-26 10:31N 39°59' W 075°06'0 0.0
2015-May-26 09:31N 39°59' W 075°06'0 0.0
2015-May-26 08:31N 39°59' W 075°06'0 0.0
2015-May-26 07:31N 39°59' W 075°06'0 0.0
2015-May-26 06:31N 39°59' W 075°06'0 0.0
2015-May-26 05:31N 39°59' W 075°06'0 0.0
2015-May-26 04:31N 39°59' W 075°06'0 0.0
2015-May-26 03:31N 39°59' W 075°06'0 0.0
2015-May-26 02:31N 39°59' W 075°06'0 0.0
2015-May-26 01:31N 39°59' W 075°06'0 0.0
2015-May-26 00:31N 39°59' W 075°06'0 0.0
2015-May-25 23:31N 39°59' W 075°06'0 0.0
2015-May-25 22:31N 39°59' W 075°06'0 0.0
2015-May-25 21:31N 39°59' W 075°06'0 0.0
2015-May-25 20:31N 39°59' W 075°06'0 0.0
2015-May-25 19:31N 39°59' W 075°06'0 0.0
2015-May-25 18:31N 39°59' W 075°06'0 0.0
2015-May-25 17:31N 39°59' W 075°06'0 0.0
2015-May-25 16:33N 39°59' W 075°06'0 0.0
2015-May-25 15:33N 39°59' W 075°06'0 0.0
2015-May-25 14:33N 39°59' W 075°06'0 0.0
2015-May-25 13:33N 39°59' W 075°06'0 0.0
2015-May-25 12:33N 39°59' W 075°06'0 0.0
2015-May-25 11:33N 39°59' W 075°06'0 0.0
2015-May-25 10:33N 39°59' W 075°06'0 0.0
2015-May-25 09:33N 39°59' W 075°06'0 0.0
2015-May-25 08:33N 39°59' W 075°06'0 0.0
2015-May-25 07:33N 39°59' W 075°06'0 0.0
2015-May-25 06:33N 39°59' W 075°06'0 0.0
2015-May-25 05:33N 39°59' W 075°06'0 0.0
2015-May-25 04:30N 39°59' W 075°06'0 0.0
2015-May-25 03:33N 39°59' W 075°06'0 0.0
2015-May-25 02:33N 39°59' W 075°06'0 0.0
2015-May-25 01:33N 39°59' W 075°06'0 0.0
2015-May-25 00:33N 39°59' W 075°06'2 1.6
2015-May-24 23:33N 39°58' W 075°07'5 5.5
2015-May-24 22:34N 39°53' W 075°10'6 5.6
2015-May-24 21:33N 39°51' W 075°17'1010.2
2015-May-24 20:33N 39°46' W 075°29'1211.0
2015-May-24 19:30N 39°35' W 075°33'3114.7
2015-May-24 17:24N 39°08' W 075°14'1316.0
2015-May-24 16:34N 38°56' W 075°06'1111.3
2015-May-24 15:33N 38°48' W 074°56'9 9.0
2015-May-24 14:33N 38°48' W 074°44'6 6.3
2015-May-24 13:33N 38°48' W 074°36'6 6.1
2015-May-24 12:33N 38°48' W 074°29'4 6.3
2015-May-24 12:00N 38°48' W 074°24'3 7.1 210 / 121030.610.8 0.518.110.114.1
2015-May-24 11:33N 38°48' W 074°20'8 7.9
2015-May-24 10:33N 38°48' W 074°10'8 8.3
2015-May-24 09:33N 38°48' W 073°59'6 6.5
2015-May-24 08:34N 38°48' W 073°51'6 5.8
2015-May-24 07:33N 38°48' W 073°43'7 7.0
2015-May-24 06:33N 38°48' W 073°34'7 7.1
2015-May-24 05:33N 38°49' W 073°25'7 6.6
2015-May-24 04:33N 38°49' W 073°17'7 6.7
2015-May-24 03:33N 38°53' W 073°10'7 6.7
2015-May-24 02:33N 38°56' W 073°03'7 6.8
2015-May-24 01:33N 39°00' W 072°56'7 7.0
2015-May-24 00:33N 39°05' W 072°48'8 6.9
2015-May-23 23:28N 39°08' W 072°40'6 7.0
2015-May-23 22:33N 39°11' W 072°33'7 7.1
2015-May-23 21:33N 39°15' W 072°25'18 7.5
2015-May-23 19:07N 39°33' W 072°23'7 7.6
2015-May-23 18:11N 39°40' W 072°26'3 4.8
2015-May-23 17:32N 39°41' W 072°30'8 7.6
2015-May-23 16:28N 39°34' W 072°26'14 7.3
2015-May-23 14:32N 39°22' W 072°16'20 3.4
2015-May-23 08:28N 39°24' W 072°42'77 6.5
2015-May-22 20:33N 40°23' W 073°48'1413.4
2015-May-22 19:32N 40°29' W 074°04'9 9.0
2015-May-22 18:32N 40°32' W 074°15'0 0.0
2015-May-20 22:33N 40°33' W 074°15'3 3.2
2015-May-20 21:32N 40°29' W 074°15'9 8.8
2015-May-20 20:33N 40°29' W 074°03'7 6.8
2015-May-20 19:29N 40°25' W 073°55'0 0.0
2015-May-20 18:11N 40°25' W 073°55'0 0.0
2015-May-20 16:23N 40°25' W 073°55'0 0.0
2015-May-20 15:14N 40°25' W 073°55'0 0.0
2015-May-20 14:23N 40°25' W 073°56'0 0.0
2015-May-20 13:32N 40°25' W 073°56'0 0.0
2015-May-20 11:32N 40°25' W 073°56'0 0.0
2015-May-20 10:26N 40°25' W 073°56'0 0.1
2015-May-20 09:32N 40°25' W 073°56'0 0.0
2015-May-20 08:32N 40°25' W 073°56'0 0.0
2015-May-20 07:32N 40°25' W 073°55'0 0.0
2015-May-20 06:32N 40°25' W 073°56'0 0.0
2015-May-20 05:29N 40°25' W 073°55'0 0.0
2015-May-20 04:32N 40°25' W 073°56'0 0.2
2015-May-20 03:32N 40°25' W 073°55'0 0.1
2015-May-20 02:32N 40°25' W 073°55'0 0.1
2015-May-20 01:08N 40°25' W 073°56'0 0.0
2015-May-20 00:32N 40°25' W 073°56'0 0.0
2015-May-19 23:30N 40°25' W 073°56'3 3.1
2015-May-19 22:34N 40°23' W 073°53'1515.0
2015-May-19 21:33N 40°09' W 073°45'1717.3
2015-May-19 20:33N 39°52' W 073°42'1716.6
2015-May-19 19:33N 39°37' W 073°33'1615.9
2015-May-19 18:32N 39°28' W 073°16'1413.9
2015-May-19 17:33N 39°18' W 073°04'42 9.6
2015-May-19 13:10N 38°42' W 073°33'16 9.4
2015-May-19 11:29N 38°47' W 073°52'1110.3
2015-May-19 10:28N 38°47' W 074°05'1010.6
2015-May-19 09:30N 38°46' W 074°18'9 9.1
2015-May-19 08:28N 38°46' W 074°30'9 9.9
2015-May-19 07:33N 38°46' W 074°42'1312.5
2015-May-19 06:34N 38°47' W 074°58'1413.8
2015-May-19 05:34N 38°58' W 075°07'1716.5
2015-May-19 04:33N 39°13' W 075°18'1414.2
2015-May-19 03:34N 39°24' W 075°29'1212.1
2015-May-19 02:33N 39°35' W 075°34'1010.0
2015-May-19 01:33N 39°45' W 075°30'1212.5
2015-May-19 00:34N 39°51' W 075°16'9 8.6
2015-May-18 23:33N 39°57' W 075°08'3 2.5
2015-May-18 22:31N 39°59' W 075°05'0 0.0
2015-May-18 21:31N 39°59' W 075°05'0 0.0
2015-May-18 20:31N 39°59' W 075°05'0 0.0
2015-May-18 19:31N 39°59' W 075°05'0 0.0
2015-May-18 18:31N 39°59' W 075°05'0 0.0
2015-May-18 17:31N 39°59' W 075°05'0 0.0
2015-May-18 16:31N 39°59' W 075°05'0 0.0
2015-May-18 15:31N 39°59' W 075°05'0 0.0
2015-May-18 14:31N 39°59' W 075°05'0 0.0
2015-May-18 13:31N 39°59' W 075°05'0 0.0
2015-May-18 12:31N 39°59' W 075°05'0 0.0
2015-May-18 11:31N 39°59' W 075°05'0 0.0
2015-May-18 10:31N 39°59' W 075°05'0 0.0
2015-May-18 09:31N 39°59' W 075°05'0 0.0
2015-May-18 08:31N 39°59' W 075°05'0 0.0
2015-May-18 07:33N 39°59' W 075°05'1 0.5
2015-May-18 06:33N 39°59' W 075°06'0 0.0
2015-May-18 05:33N 39°59' W 075°06'0 0.0
2015-May-18 04:33N 39°59' W 075°06'0 0.0
2015-May-18 03:33N 39°59' W 075°06'0 0.0
2015-May-18 02:33N 39°59' W 075°06'0 0.0
2015-May-18 01:33N 39°59' W 075°06'0 0.0
2015-May-18 00:33N 39°59' W 075°06'  

Dump ship's entire track history